Stations météo

Publicité
Beg Melen, France (7203): Température de l'air & dewpoint: 10.12.2018 14:00:00 - 16.12.2018 14:00:00 (CET)Beg Melen, France (7203): Vitesse du vent & gusts: 10.12.2018 14:00:00 - 16.12.2018 14:00:00 (CET)Beg Melen, France (7203): Direction du vent: 10.12.2018 14:00:00 - 16.12.2018 14:00:00 (CET)Beg Melen, France (7203): visibility: 10.12.2018 14:00:00 - 16.12.2018 14:00:00 (CET)Beg Melen, France (7203): Quantités de précipitations: 10.12.2018 14:00:00 - 16.12.2018 14:00:00 (CET)
Date & Time tt [°C] td [°C] ff [km/h] ff [knt] fx [km/h] fx [knt] dd vv [km] rr [mm]
16.12.2018 14:00:00 9,5 7,9 29 16 64 35 WSW - 0,6
16.12.2018 13:00:00 9,5 8,3 38 21 75 41 SW 6 2,4
16.12.2018 12:00:00 10,0 8,1 33 18 69 38 SW - 1,6
16.12.2018 11:00:00 12,0 9,0 28 15 44 24 SSW - 0,0
16.12.2018 10:00:00 10,8 8,9 24 13 40 21 S 20 0,0
16.12.2018 09:00:00 10,4 7,8 27 15 39 21 SSW - 0,0
16.12.2018 08:00:00 10,6 8,2 19 10 37 20 SW - 0,0
16.12.2018 07:00:00 10,8 8,0 29 16 39 21 SW 20 0,0
16.12.2018 06:00:00 11,2 7,5 24 13 50 27 WSW - 0,0
16.12.2018 05:00:00 11,3 7,6 28 15 53 29 WSW - 0,0
16.12.2018 04:00:00 11,4 7,9 27 15 48 26 WSW 20 0,0
16.12.2018 03:00:00 11,4 7,7 33 18 54 29 WSW - 0,0
16.12.2018 02:00:00 11,5 8,4 29 16 56 30 W - 0,0
16.12.2018 01:00:00 11,6 8,3 31 17 60 33 WSW 20 0,0
16.12.2018 00:00:00 11,3 8,3 28 15 55 30 W - 0,0
15.12.2018 23:00:00 10,6 7,3 31 17 61 33 W - 0,0
15.12.2018 22:00:00 11,8 8,5 31 17 66 35 W 20 0,0
15.12.2018 21:00:00 11,8 8,6 31 17 65 35 W - 0,0
15.12.2018 20:00:00 12,0 8,8 37 20 71 39 W - 0,0
15.12.2018 19:00:00 11,3 8,3 52 28 72 39 W 10 0,0
15.12.2018 18:00:00 12,1 10,5 37 20 74 40 W - 1,2
15.12.2018 17:00:00 13,2 13,0 42 23 72 39 SW - 1,0
15.12.2018 16:00:00 13,3 13,1 47 26 71 38 SW 6 1,0
15.12.2018 15:00:00 13,2 13,0 39 21 67 36 SW - 0,0
15.12.2018 14:00:00 13,3 13,1 44 24 62 34 SSW - 0,0
15.12.2018 13:00:00 13,4 13,2 45 24 68 37 SW 6 0,0
15.12.2018 12:00:00 13,2 13,0 42 23 58 31 SW - 2,6
15.12.2018 11:00:00 13,0 12,8 34 18 47 25 SSW - 0,2
15.12.2018 10:00:00 12,8 12,6 29 16 41 22 S 0,2 0,0
15.12.2018 09:00:00 12,7 12,5 29 16 47 25 SSW - 0,2
15.12.2018 08:00:00 12,4 12,2 34 18 56 30 S - 3,4
15.12.2018 07:00:00 11,7 11,5 39 21 57 31 S 4,0 2,6
15.12.2018 06:00:00 11,3 11,1 33 18 59 32 SSE - 6,7
15.12.2018 05:00:00 10,8 10,6 29 16 52 28 SE - 5,4
15.12.2018 04:00:00 9,6 9,3 36 20 53 28 SE 4,0 4,9
15.12.2018 03:00:00 10,4 10,1 31 17 52 28 SSE - 1,0
15.12.2018 02:00:00 10,0 9,7 27 15 49 26 SSE - 1,0
15.12.2018 01:00:00 9,4 9,1 29 16 50 27 SE 6 1,2
15.12.2018 00:00:00 9,0 8,4 29 16 51 27 SE - 0,2
14.12.2018 23:00:00 8,5 7,6 28 15 47 25 SE - 0,0
14.12.2018 22:00:00 7,7 6,6 27 15 46 25 SE 15 0,0
14.12.2018 21:00:00 7,2 5,0 25 13 38 21 SE - 0,0
14.12.2018 20:00:00 6,7 4,4 20 11 33 18 SE - 0,0
14.12.2018 19:00:00 6,0 3,5 21 11 34 18 SE 15 0,0
14.12.2018 18:00:00 5,3 2,8 22 12 46 25 SE - 0,0
14.12.2018 17:00:00 4,8 2,3 21 11 32 18 SE - 0,0
14.12.2018 16:00:00 4,6 2,0 18 10 31 17 ESE 8 0,2
14.12.2018 15:00:00 4,4 1,9 19 10 30 16 SE - 0,0
14.12.2018 14:00:00 3,8 1,8 17 9 27 15 ESE - 0,0
14.12.2018 13:00:00 3,6 2,0 16 9 26 14 ESE 6 0,0
14.12.2018 12:00:00 3,3 1,3 14 7 27 15 ESE - 0,0
14.12.2018 11:00:00 3,1 1,3 19 11 32 17 ESE - 0,0
14.12.2018 10:00:00 2,5 0,7 13 7 29 16 ESE 8 0,0
14.12.2018 09:00:00 2,4 0,8 17 9 30 16 E - 0,0
14.12.2018 08:00:00 2,5 0,9 16 9 29 16 ESE - 0,0
14.12.2018 07:00:00 2,5 0,7 14 8 26 14 E 10 0,0
14.12.2018 06:00:00 2,6 0,8 13 7 29 16 E - 0,0
14.12.2018 05:00:00 2,9 1,1 13 7 27 15 E - 0,0
14.12.2018 04:00:00 3,3 1,0 12 6 25 13 E 8 0,0
14.12.2018 03:00:00 3,4 1,0 16 8 25 13 ESE - 0,0
14.12.2018 02:00:00 3,3 1,0 14 8 34 19 ESE - 0,0
14.12.2018 01:00:00 3,3 1,0 20 11 34 19 E 8 0,0
14.12.2018 00:00:00 3,4 1,1 16 9 32 17 ESE - 0,0
13.12.2018 23:00:00 3,5 1,4 17 9 39 21 E - 0,0
13.12.2018 22:00:00 3,4 1,3 23 13 37 20 E 10 0,0
13.12.2018 21:00:00 3,4 1,4 22 12 40 22 E - 0,0
13.12.2018 20:00:00 3,4 1,9 23 12 43 23 E - 0,2
13.12.2018 19:00:00 3,6 2,4 24 13 42 23 E 8 0,0
13.12.2018 18:00:00 3,7 2,7 22 12 36 20 E - 0,0
13.12.2018 17:00:00 3,8 2,9 21 11 41 22 E - 0,2
13.12.2018 16:00:00 4,3 3,6 21 12 41 22 E 8 0,0
13.12.2018 15:00:00 4,3 3,7 22 12 47 25 E - 0,0
13.12.2018 14:00:00 4,2 3,5 28 15 51 28 E - 0,0
13.12.2018 13:00:00 4,5 3,9 26 14 56 31 E 8 0,0
13.12.2018 12:00:00 4,2 3,6 29 15 51 28 E - 0,2
13.12.2018 11:00:00 4,2 3,6 29 16 51 28 E - 0,8
13.12.2018 10:00:00 4,1 3,4 32 17 50 27 E 8 0,6
13.12.2018 09:00:00 4,6 3,7 31 17 51 28 E - 0,2
13.12.2018 08:00:00 5,0 4,1 29 16 49 27 ESE - 0,8
13.12.2018 07:00:00 5,7 4,5 32 17 56 30 ESE 10 0,0
13.12.2018 06:00:00 6,2 5,3 29 16 54 29 ESE - 0,0
13.12.2018 05:00:00 6,2 5,2 29 16 57 31 ESE - 0,0
13.12.2018 04:00:00 6,3 5,4 31 17 56 30 ESE 10 0,0
13.12.2018 03:00:00 6,1 5,2 32 17 57 31 ESE - 0,0
13.12.2018 02:00:00 6,5 5,6 31 17 51 28 ESE - 0,0
13.12.2018 01:00:00 6,6 5,5 26 14 48 26 ESE 10 0,0
13.12.2018 00:00:00 6,8 5,7 25 14 48 26 ESE - 0,0
12.12.2018 23:00:00 6,5 5,4 27 14 43 23 ESE - 0,0
12.12.2018 22:00:00 6,6 5,4 26 14 42 23 ESE 9 0,0
12.12.2018 21:00:00 7,1 5,9 22 12 36 20 ESE - 0,0
12.12.2018 20:00:00 7,0 5,6 19 11 38 20 ESE - 0,0
12.12.2018 19:00:00 6,9 5,7 18 10 36 20 SE 10 0,0
12.12.2018 18:00:00 6,8 5,7 23 12 40 21 ESE - 0,0
12.12.2018 17:00:00 6,8 5,9 18 10 31 17 SE - 0,0
12.12.2018 16:00:00 7,3 6,4 17 9 27 15 ESE 10 0,0
12.12.2018 15:00:00 7,4 6,7 16 9 30 16 ESE - 0,0
12.12.2018 14:00:00 7,6 6,8 16 9 26 14 ESE - 0,0
12.12.2018 13:00:00 7,6 7,2 14 8 23 13 ESE 8 0,0
12.12.2018 12:00:00 6,9 6,6 9 5 22 12 ESE - 0,0
12.12.2018 11:00:00 6,7 6,4 14 8 32 17 ESE - 0,0
12.12.2018 10:00:00 6,7 6,4 15 8 24 13 E 0,8 0,0
12.12.2018 09:00:00 6,7 6,4 13 7 22 12 E - 0,0
12.12.2018 08:00:00 6,8 6,4 14 8 23 12 E - 0,0
12.12.2018 07:00:00 6,8 6,4 15 8 27 15 ESE 0,8 0,0
12.12.2018 06:00:00 7,4 7,0 21 12 40 22 ESE - 0,0
12.12.2018 05:00:00 7,1 6,5 18 10 37 20 E - 0,0
12.12.2018 04:00:00 7,1 6,4 23 12 51 27 ESE 15 0,2
12.12.2018 03:00:00 8,5 7,0 33 18 68 37 NE - 2,5
12.12.2018 02:00:00 9,9 9,1 18 10 44 24 SSE - 3,0
12.12.2018 01:00:00 10,2 8,5 28 15 48 26 SSE 15 0,2
12.12.2018 00:00:00 10,1 8,0 31 17 47 26 SSE - 0,6
11.12.2018 23:00:00 10,7 7,9 29 15 44 24 SSE - 0,0
11.12.2018 22:00:00 10,7 7,2 27 15 44 24 SSE 15 0,0
11.12.2018 21:00:00 10,8 6,9 31 17 42 23 S - 0,0
11.12.2018 20:00:00 10,4 7,1 27 14 42 23 SSE - 0,0
11.12.2018 19:00:00 10,2 7,4 21 12 38 21 SSE 20 0,0
11.12.2018 18:00:00 10,0 6,9 24 13 37 20 SSE - 0,0
11.12.2018 17:00:00 10,0 6,7 21 11 38 21 SE - 0,0
11.12.2018 16:00:00 10,6 7,1 25 13 36 20 SSE 20 0,0
11.12.2018 15:00:00 10,8 6,9 24 13 42 23 SSE - 0,2
11.12.2018 14:00:00 11,0 7,3 26 14 41 22 SSE - 0,0
11.12.2018 13:00:00 10,6 7,3 26 14 38 20 SSE 20 0,0
11.12.2018 12:00:00 9,5 7,4 24 13 46 25 SE - 0,0
11.12.2018 11:00:00 8,7 8,1 23 13 36 19 SE - 0,0
11.12.2018 10:00:00 8,0 7,6 21 11 37 20 ESE 9 0,0
11.12.2018 09:00:00 7,8 7,4 21 11 36 19 ESE - 0,0
11.12.2018 08:00:00 8,1 7,7 17 9 26 14 ESE - 0,0
11.12.2018 07:00:00 7,6 7,2 14 7 24 13 E 20 0,0
11.12.2018 06:00:00 7,8 7,4 15 8 21 11 ESE - 0,0
11.12.2018 05:00:00 8,2 7,8 15 8 24 13 ESE - 0,0
11.12.2018 04:00:00 8,2 7,8 18 10 23 12 SE 15 0,2
11.12.2018 03:00:00 7,7 7,3 13 7 19 10 ESE - 0,0
11.12.2018 02:00:00 8,0 7,6 11 6 16 9 E - 0,0
11.12.2018 01:00:00 8,1 7,5 11 6 16 9 E 15 0,0
11.12.2018 00:00:00 8,1 7,3 11 6 16 9 E - 0,0
10.12.2018 23:00:00 8,8 7,2 9 5 14 7 E - 0,0
10.12.2018 22:00:00 8,6 6,7 6 3 8 4 S 25 0,0
10.12.2018 21:00:00 8,4 6,7 7 4 11 6 SW - 0,0
10.12.2018 20:00:00 8,7 6,5 8 5 13 7 SW - 0,0
10.12.2018 19:00:00 8,9 6,9 9 5 11 6 WSW 25 0,0
10.12.2018 18:00:00 8,9 6,2 9 5 12 6 WSW - 0,0
10.12.2018 17:00:00 11,0 6,3 5 3 12 6 WSW - 0,0
10.12.2018 16:00:00 12,0 6,1 8 4 13 7 W 20 0,0
10.12.2018 15:00:00 12,9 6,5 4 2 9 5 W - 0,0
10.12.2018 14:00:00 12,4 7,1 4 2 13 7 NW - 0,0

tt = Température de l'air
td = dewpoint
ff = Vitesse du vent
fx = gusts
dd = Direction du vent
vv = visibility
rr = Quantités de précipitations

stations d'obs. à proximité